EDT,Max TemperatureF,Mean TemperatureF,Min TemperatureF,Max Dew PointF,MeanDew PointF,Min DewpointF,Max Humidity, Mean Humidity, Min Humidity, Max Sea Level PressureIn, Mean Sea Level PressureIn, Min Sea Level PressureIn, Max VisibilityMiles, Mean VisibilityMiles, Min VisibilityMiles, Max Wind SpeedMPH, Mean Wind SpeedMPH, Max Gust SpeedMPH,PrecipitationIn, CloudCover, Events, WindDirDegrees
2013-10-1,82,69,55,60,55,51,93,70,36,30.16,30.10,30.06,10,10,8,10,2,15,0.00,0,,41
2013-10-2,86,72,57,62,58,53,93,70,34,30.16,30.11,30.07,10,9,5,10,2,14,0.00,0,,54
2013-10-3,85,73,60,65,60,57,97,75,40,30.15,30.12,30.07,10,7,2,9,2,14,0.00,0,,129
2013-10-4,87,75,62,67,63,59,100,85,40,30.16,30.11,30.07,10,5,0,7,1,12,0.00,0,Fog-Rain,330
2013-10-5,88,75,61,65,62,59,100,82,40,30.14,30.10,30.03,10,5,1,10,2,14,0.00,1,,117
2013-10-6,87,76,64,71,67,61,97,82,50,30.06,30.00,29.91,10,7,0,13,3,17,0.00,4,Fog-Rain,137
2013-10-7,83,78,73,73,71,69,93,86,69,29.92,29.86,29.82,10,9,2,9,4,14,T,6,Rain,131
2013-10-8,73,65,57,70,57,52,87,78,58,30.14,30.03,29.90,10,10,6,23,12,31,0.11,8,Rain,30
2013-10-9,76,67,57,58,54,50,86,70,53,30.16,30.11,30.06,10,10,10,17,8,22,0.00,5,,15
2013-10-10,79,67,55,60,52,48,87,63,35,30.09,30.03,29.97,10,10,10,16,5,22,0.00,2,,343
2013-10-11,84,73,62,61,59,54,93,68,37,30.02,29.96,29.91,10,10,10,13,2,18,0.00,5,Rain,309
2013-10-12,83,72,60,64,61,58,93,72,48,30.06,30.01,29.96,10,10,10,9,2,20,0.00,4,,32
2013-10-13,74,70,66,65,63,61,87,81,68,30.17,30.12,30.06,10,10,2,14,6,17,T,8,Rain,28
2013-10-14,72,69,66,63,62,60,87,82,73,30.18,30.14,30.11,10,10,7,15,9,22,T,8,Rain,28
2013-10-15,77,68,59,60,55,49,84,71,38,30.15,30.10,30.02,10,10,10,15,7,21,0.00,4,,36
2013-10-16,79,67,55,61,58,53,93,76,50,30.07,30.02,29.96,10,10,9,9,2,12,0.00,3,,114
2013-10-17,83,72,60,66,62,57,100,82,47,30.00,29.95,29.88,10,6,0,15,4,18,0.00,4,Fog,215
2013-10-18,74,71,67,70,67,64,93,90,84,30.00,29.96,29.90,10,5,2,8,1,9,0.28,8,Rain,82
2013-10-19,78,71,64,68,62,50,100,81,39,29.96,29.93,29.88,10,5,0,14,4,18,0.01,6,Fog-Rain,284
2013-10-20,72,64,56,55,51,47,86,67,44,30.09,30.02,29.94,10,10,10,14,5,20,0.00,1,Rain,48
2013-10-21,73,63,52,57,53,49,93,76,53,30.14,30.07,30.02,10,10,10,8,2,13,T,1,,65
2013-10-22,70,65,59,61,58,55,93,84,61,30.03,29.93,29.86,10,8,4,9,2,13,0.01,5,Rain,184
2013-10-23,73,62,51,61,49,29,97,66,20,30.06,29.83,29.78,10,8,4,12,10,17,0.00,3,,270
2013-10-24,66,53,39,43,36,31,86,57,31,30.22,30.14,30.06,10,10,10,12,3,16,0.00,0,,317
2013-10-25,61,52,43,43,35,29,86,56,29,30.37,30.28,30.16,10,10,10,16,6,23,0.00,1,,24
2013-10-26,63,50,36,39,31,24,76,56,23,30.35,30.26,30.16,10,10,10,9,3,14,0.00,0,,26
2013-10-27,74,57,39,52,43,36,93,68,37,30.16,30.12,30.08,10,10,8,9,2,12,0.00,0,,216
2013-10-28,72,62,52,58,54,50,96,84,57,30.27,30.22,30.14,10,6,0,8,2,9,0.05,4,Fog-Rain,250
2013-10-29,77,63,49,57,52,48,100,84,43,30.35,30.28,30.25,10,5,0,8,1,12,0.00,1,Fog,296
2013-10-30,79,66,52,57,53,50,96,73,40,30.32,30.25,30.19,10,8,2,9,1,14,0.00,0,,174
2013-10-31,80,66,52,65,56,50,96,86,50,30.21,30.14,29.98,10,5,0,14,4,18,0.00,2,Fog,187